Time;durP1;ratioP1;P1;durP2;ratioP2;P2;SDS_P1;SDS_P2;PMS_P1;PMS_P2;Temp;Humidity;BMP_temperature;BMP_pressure;BME280_temperature;BME280_humidity;BME280_pressure;Samples;Min_cycle;Max_cycle;Signal;HPM_P1;HPM_P2
2021/11/13 00:02:26;;;;;;;;;;;;;;;;;;5066642;28;20015;-68
2021/11/13 00:04:53;;;;;;;;;;;;;;;;;;5077782;28;19924;-67
2021/11/13 00:07:20;;;;;;;;;;;;;;;;;;5069047;28;19924;-67
2021/11/13 00:09:47;;;;;;;;;;;;;;;;;;5061379;28;19931;-68
2021/11/13 00:12:14;;;;;;;;;;;;;;;;;;5068106;28;19974;-67
2021/11/13 00:14:44;;;;;;;;;;;;;;;;;;5062829;28;19974;-67
2021/11/13 00:17:12;;;;;;;;;;;;;;;;;;5062406;28;19928;-67
2021/11/13 00:19:39;;;;;;;;;;;;;;;;;;5058014;28;20182;-67
2021/11/13 00:22:06;;;;;;;;;;;;;;;;;;5065433;28;20360;-68
2021/11/13 00:24:33;;;;;;;;;;;;;;;;;;5068571;28;19924;-67
2021/11/13 00:27:00;;;;;;;;;;;;;;;;;;5069400;28;19929;-67
2021/11/13 00:29:27;;;;;;;;;;;;;;;;;;5056760;28;19931;-66
2021/11/13 00:31:54;;;;;;;;;;;;;;;;;;5066644;28;19934;-67
2021/11/13 00:34:21;;;;;;;;;;;;;;;;;;5057035;28;20282;-68
2021/11/13 00:36:48;;;;;;;;;;;;;;;;;;5059756;28;19935;-66
2021/11/13 00:39:15;;;;;;;;;;;;;;;;;;5054415;28;19924;-67
2021/11/13 00:41:42;;;;;;;;;;;;;;;;;;5064643;28;19924;-66
2021/11/13 00:44:09;;;;;;;;;;;;;;;;;;5056152;28;19929;-66
2021/11/13 00:46:36;;;;;;;;;;;;;;;;;;5070620;28;19928;-68
2021/11/13 00:49:03;;;;;;;;;;;;;;;;;;5061210;28;20280;-68
2021/11/13 00:51:30;;;;;;;;;;;;;;;;;;5063326;28;20261;-67
2021/11/13 00:53:57;;;;;;;;;;;;;;;;;;5059587;28;20308;-66
2021/11/13 00:56:24;;;;;;;;;;;;;;;;;;5061367;28;19924;-67
2021/11/13 00:58:51;;;;;;;;;;;;;;;;;;5061207;28;19932;-67
2021/11/13 01:01:18;;;;;;;;;;;;;;;;;;5064568;28;19924;-64
2021/11/13 01:03:45;;;;;;;;;;;;;;;;;;5064030;28;19924;-67
2021/11/13 01:06:12;;;;;;;;;;;;;;;;;;5067449;28;19925;-66
2021/11/13 01:08:40;;;;;;;;;;;;;;;;;;5059330;28;20317;-67
2021/11/13 01:11:07;;;;;;;;;;;;;;;;;;5071939;28;20003;-65
2021/11/13 01:13:34;;;;;;;;;;;;;;;;;;5061267;28;19931;-67
2021/11/13 01:16:01;;;;;;;;;;;;;;;;;;5060270;28;20321;-67
2021/11/13 01:18:28;;;;;;;;;;;;;;;;;;5060135;28;19929;-67
2021/11/13 01:20:55;;;;;;;;;;;;;;;;;;5070884;28;20391;-68
2021/11/13 01:23:22;;;;;;;;;;;;;;;;;;5069077;28;19925;-66
2021/11/13 01:25:49;;;;;;;;;;;;;;;;;;5061033;28;19936;-67
2021/11/13 01:28:16;;;;;;;;;;;;;;;;;;5061697;28;19924;-67
2021/11/13 01:30:43;;;;;;;;;;;;;;;;;;5068764;28;19924;-66
2021/11/13 01:33:10;;;;;;;;;;;;;;;;;;5057617;28;19964;-68
2021/11/13 01:35:36;;;;;;;;;;;;;;;;;;5056172;28;20402;-67
2021/11/13 01:38:03;;;;;;;;;;;;;;;;;;5062536;28;20376;-67
2021/11/13 01:40:30;;;;;;;;;;;;;;;;;;5062257;28;19925;-65
2021/11/13 01:42:57;;;;;;;;;;;;;;;;;;5061126;28;19931;-67
2021/11/13 01:45:24;;;;;;;;;;;;;;;;;;5055987;28;19925;-67
2021/11/13 01:47:51;;;;;;;;;;;;;;;;;;5064094;28;19928;-68
2021/11/13 01:50:18;;;;;;;;;;;;;;;;;;5057474;28;19925;-68
2021/11/13 01:52:45;;;;;;;;;;;;;;;;;;5054701;28;19924;-66
2021/11/13 01:55:12;;;;;;;;;;;;;;;;;;5055865;28;19924;-67
2021/11/13 01:57:46;;;;;;;;;;;;;;;;;;5067486;28;20023;-66
2021/11/13 02:00:13;;;;;;;;;;;;;;;;;;5072237;28;19970;-66
2021/11/13 02:02:40;;;;;;;;;;;;;;;;;;5073294;28;19928;-67
2021/11/13 02:05:07;;;;;;;;;;;;;;;;;;5067226;28;20023;-68
2021/11/13 02:07:34;;;;;;;;;;;;;;;;;;5069925;28;20027;-68
2021/11/13 02:10:01;;;;;;;;;;;;;;;;;;5060416;28;19931;-68
2021/11/13 02:12:28;;;;;;;;;;;;;;;;;;5068700;28;19939;-67
2021/11/13 02:14:54;;;;;;;;;;;;;;;;;;5060257;28;20327;-67
2021/11/13 02:17:21;;;;;;;;;;;;;;;;;;5062577;28;19931;-66
2021/11/13 02:19:48;;;;;;;;;;;;;;;;;;5059667;28;20365;-67
2021/11/13 02:22:16;;;;;;;;;;;;;;;;;;5071419;28;19924;-67
2021/11/13 02:24:43;;;;;;;;;;;;;;;;;;5072252;28;19970;-66
2021/11/13 02:27:10;;;;;;;;;;;;;;;;;;5056378;28;19929;-67
2021/11/13 02:29:36;;;;;;;;;;;;;;;;;;5061596;28;19925;-66
2021/11/13 02:32:03;;;;;;;;;;;;;;;;;;5062122;28;19924;-68
2021/11/13 02:34:30;;;;;;;;;;;;;;;;;;5063225;28;19924;-66
2021/11/13 02:36:57;;;;;;;;;;;;;;;;;;5060971;28;19924;-66
2021/11/13 02:39:24;;;;;;;;;;;;;;;;;;5061240;28;19943;-65
2021/11/13 02:41:51;;;;;;;;;;;;;;;;;;5052493;28;20416;-66
2021/11/13 02:44:18;;;;;;;;;;;;;;;;;;5056598;28;20343;-62
2021/11/13 02:46:45;;;;;;;;;;;;;;;;;;5062401;28;19925;-66
2021/11/13 02:49:12;;;;;;;;;;;;;;;;;;5067975;28;19932;-66
2021/11/13 02:51:39;;;;;;;;;;;;;;;;;;5057125;28;19928;-67
2021/11/13 02:54:06;;;;;;;;;;;;;;;;;;5063130;28;20018;-64
2021/11/13 02:56:33;;;;;;;;;;;;;;;;;;5072992;28;19933;-66
2021/11/13 02:59:00;;;;;;;;;;;;;;;;;;5071203;28;19932;-67
2021/11/13 03:01:27;;;;;;;;;;;;;;;;;;5065295;28;19935;-67
2021/11/13 03:03:54;;;;;;;;;;;;;;;;;;5072167;28;19924;-67
2021/11/13 03:06:21;;;;;;;;;;;;;;;;;;5069284;28;20018;-66
2021/11/13 03:08:50;;;;;;;;;;;;;;;;;;5061649;28;19935;-67
2021/11/13 03:11:17;;;;;;;;;;;;;;;;;;5062582;28;19924;-66
2021/11/13 03:13:44;;;;;;;;;;;;;;;;;;5059189;28;19925;-66
2021/11/13 03:16:10;;;;;;;;;;;;;;;;;;5066651;28;19939;-67
2021/11/13 03:18:37;;;;;;;;;;;;;;;;;;5063127;28;19924;-65
2021/11/13 03:21:06;;;;;;;;;;;;;;;;;;5070521;28;19928;-67
2021/11/13 03:23:33;;;;;;;;;;;;;;;;;;5070738;28;19932;-67
2021/11/13 03:26:00;;;;;;;;;;;;;;;;;;5065991;28;19925;-65
2021/11/13 03:28:27;;;;;;;;;;;;;;;;;;5067057;28;20039;-66
2021/11/13 03:30:54;;;;;;;;;;;;;;;;;;5068260;28;19925;-67
2021/11/13 03:33:21;;;;;;;;;;;;;;;;;;5071059;28;20376;-66
2021/11/13 03:35:48;;;;;;;;;;;;;;;;;;5069878;28;20007;-67
2021/11/13 03:38:15;;;;;;;;;;;;;;;;;;5064985;28;20313;-67
2021/11/13 03:40:41;;;;;;;;;;;;;;;;;;5067734;28;19925;-66
2021/11/13 03:43:10;;;;;;;;;;;;;;;;;;5067308;28;19924;-69
2021/11/13 03:45:37;;;;;;;;;;;;;;;;;;5068007;28;20300;-66
2021/11/13 03:48:04;;;;;;;;;;;;;;;;;;5065087;28;19936;-64
2021/11/13 03:50:31;;;;;;;;;;;;;;;;;;5063215;28;19924;-66
2021/11/13 03:52:58;;;;;;;;;;;;;;;;;;5057371;28;19924;-67
2021/11/13 03:55:25;;;;;;;;;;;;;;;;;;5066027;28;19925;-67
2021/11/13 03:57:52;;;;;;;;;;;;;;;;;;5002034;22;19926;-60
2021/11/13 04:00:20;;;;;;;;;;;;;;;;;;4978188;28;20035;-60
2021/11/13 04:02:47;;;;;;;;;;;;;;;;;;4966300;28;19927;-60
2021/11/13 04:05:14;;;;;;;;;;;;;;;;;;5001151;28;20008;-61
2021/11/13 04:07:41;;;;;;;;;;;;;;;;;;4976283;28;19934;-60
2021/11/13 04:10:08;;;;;;;;;;;;;;;;;;4958875;28;19934;-60
2021/11/13 04:12:35;;;;;;;;;;;;;;;;;;4961204;28;19927;-60
2021/11/13 04:15:02;;;;;;;;;;;;;;;;;;4968668;28;20346;-60
2021/11/13 04:17:29;;;;;;;;;;;;;;;;;;4951852;28;19934;-60
2021/11/13 04:19:56;;;;;;;;;;;;;;;;;;4951746;28;19962;-60
2021/11/13 04:22:23;;;;;;;;;;;;;;;;;;4971686;28;19927;-60
2021/11/13 04:24:50;;;;;;;;;;;;;;;;;;4965788;28;19933;-60
2021/11/13 04:27:17;;;;;;;;;;;;;;;;;;4954234;28;19933;-60
2021/11/13 04:29:44;;;;;;;;;;;;;;;;;;4956256;28;19927;-61
2021/11/13 04:32:11;;;;;;;;;;;;;;;;;;4954620;28;19931;-59
2021/11/13 04:34:45;;;;;;;;;;;;;;;;;;4970338;28;19926;-60
2021/11/13 04:37:15;;;;;;;;;;;;;;;;;;4952333;28;19980;-60
2021/11/13 04:39:42;;;;;;;;;;;;;;;;;;4953908;28;19930;-61
2021/11/13 04:42:09;;;;;;;;;;;;;;;;;;4958046;28;19937;-60
2021/11/13 04:44:36;;;;;;;;;;;;;;;;;;4953463;28;19935;-60
2021/11/13 04:47:03;;;;;;;;;;;;;;;;;;4952979;28;19931;-60
2021/11/13 04:49:31;;;;;;;;;;;;;;;;;;4955729;28;20025;-60
2021/11/13 04:51:58;;;;;;;;;;;;;;;;;;4954454;28;20013;-60
2021/11/13 04:54:25;;;;;;;;;;;;;;;;;;4955538;28;19927;-59
2021/11/13 04:56:53;;;;;;;;;;;;;;;;;;4955194;28;19933;-60
2021/11/13 04:59:20;;;;;;;;;;;;;;;;;;4952526;28;19927;-61
2021/11/13 05:01:47;;;;;;;;;;;;;;;;;;4950002;28;19926;-60
2021/11/13 05:04:14;;;;;;;;;;;;;;;;;;4954068;28;19926;-61
2021/11/13 05:06:41;;;;;;;;;;;;;;;;;;4957223;28;20301;-59
2021/11/13 05:09:08;;;;;;;;;;;;;;;;;;4962724;28;19926;-60
2021/11/13 05:11:35;;;;;;;;;;;;;;;;;;4957297;28;19933;-60
2021/11/13 05:14:02;;;;;;;;;;;;;;;;;;4971765;28;19926;-61
2021/11/13 05:16:29;;;;;;;;;;;;;;;;;;4955638;28;19936;-61
2021/11/13 05:18:56;;;;;;;;;;;;;;;;;;4955221;28;19926;-61
2021/11/13 05:21:23;;;;;;;;;;;;;;;;;;4951923;28;20394;-60
2021/11/13 05:23:50;;;;;;;;;;;;;;;;;;4956832;28;19926;-61
2021/11/13 05:26:17;;;;;;;;;;;;;;;;;;4954300;28;19930;-61
2021/11/13 05:28:44;;;;;;;;;;;;;;;;;;4957388;28;19934;-62
2021/11/13 05:31:11;;;;;;;;;;;;;;;;;;4960346;28;20448;-60
2021/11/13 05:33:38;;;;;;;;;;;;;;;;;;4957245;28;19935;-60
2021/11/13 05:36:05;;;;;;;;;;;;;;;;;;4960674;28;19924;-60
2021/11/13 05:38:32;;;;;;;;;;;;;;;;;;4955881;28;20393;-61
2021/11/13 05:40:59;;;;;;;;;;;;;;;;;;4966869;28;20314;-60
2021/11/13 05:43:26;;;;;;;;;;;;;;;;;;4966764;28;19932;-59
2021/11/13 05:45:53;;;;;;;;;;;;;;;;;;4970840;28;19925;-60
2021/11/13 05:48:20;;;;;;;;;;;;;;;;;;4952894;28;19926;-60
2021/11/13 05:50:47;;;;;;;;;;;;;;;;;;4965776;28;19927;-61
2021/11/13 05:53:14;;;;;;;;;;;;;;;;;;4961572;28;19930;-61
2021/11/13 05:55:41;;;;;;;;;;;;;;;;;;4948582;28;19927;-58
2021/11/13 05:58:08;;;;;;;;;;;;;;;;;;4953587;28;19926;-59
2021/11/13 06:00:35;;;;;;;;;;;;;;;;;;4956428;28;19927;-60
2021/11/13 06:03:02;;;;;;;;;;;;;;;;;;4956117;28;19957;-60
2021/11/13 06:05:29;;;;;;;;;;;;;;;;;;4950442;28;19930;-59
2021/11/13 06:07:56;;;;;;;;;;;;;;;;;;4955594;28;19927;-57
2021/11/13 06:10:23;;;;;;;;;;;;;;;;;;4948857;28;19927;-60
2021/11/13 06:12:50;;;;;;;;;;;;;;;;;;4954249;28;19926;-56
2021/11/13 06:15:17;;;;;;;;;;;;;;;;;;4950690;28;19934;-60
2021/11/13 06:17:45;;;;;;;;;;;;;;;;;;4949680;28;19926;-60
2021/11/13 06:20:12;;;;;;;;;;;;;;;;;;4948127;28;20013;-61
2021/11/13 06:22:39;;;;;;;;;;;;;;;;;;4951913;28;20394;-60
2021/11/13 06:25:06;;;;;;;;;;;;;;;;;;4951103;28;19927;-61
2021/11/13 06:27:33;;;;;;;;;;;;;;;;;;4951755;28;19927;-61
2021/11/13 06:30:00;;;;;;;;;;;;;;;;;;4963300;28;19926;-61
2021/11/13 06:32:27;;;;;;;;;;;;;;;;;;4951524;28;19938;-61
2021/11/13 06:34:58;;;;;;;;;;;;;;;;;;4952319;28;20306;-60
2021/11/13 06:37:25;;;;;;;;;;;;;;;;;;4946805;28;19927;-61
2021/11/13 06:39:52;;;;;;;;;;;;;;;;;;4962604;28;19933;-61
2021/11/13 06:42:19;;;;;;;;;;;;;;;;;;4951205;28;19942;-58
2021/11/13 06:44:46;;;;;;;;;;;;;;;;;;4948858;28;19962;-61
2021/11/13 06:47:13;;;;;;;;;;;;;;;;;;4968656;28;19926;-61
2021/11/13 06:49:40;;;;;;;;;;;;;;;;;;4952469;28;19937;-61
2021/11/13 06:52:07;;;;;;;;;;;;;;;;;;4957572;28;19933;-60
2021/11/13 06:54:34;;;;;;;;;;;;;;;;;;4976935;28;19925;-61
2021/11/13 06:57:01;;;;;;;;;;;;;;;;;;4953395;28;19926;-61
2021/11/13 06:59:28;;;;;;;;;;;;;;;;;;4952621;28;19934;-61
2021/11/13 07:01:55;;;;;;;;;;;;;;;;;;4950157;28;19937;-61
2021/11/13 07:04:22;;;;;;;;;;;;;;;;;;4958835;28;19936;-62
2021/11/13 07:06:49;;;;;;;;;;;;;;;;;;4951949;28;19930;-59
2021/11/13 07:09:16;;;;;;;;;;;;;;;;;;4950243;28;19927;-59
2021/11/13 07:11:43;;;;;;;;;;;;;;;;;;4951274;28;19932;-58
2021/11/13 07:14:10;;;;;;;;;;;;;;;;;;4951036;28;19934;-59
2021/11/13 07:16:37;;;;;;;;;;;;;;;;;;4948593;28;20016;-59
2021/11/13 07:19:04;;;;;;;;;;;;;;;;;;4950981;28;20137;-60
2021/11/13 07:21:31;;;;;;;;;;;;;;;;;;4948363;28;19935;-59
2021/11/13 07:23:58;;;;;;;;;;;;;;;;;;4953487;28;20017;-60
2021/11/13 07:26:25;;;;;;;;;;;;;;;;;;4952647;28;20405;-62
2021/11/13 07:28:55;;;;;;;;;;;;;;;;;;4950561;28;19931;-62
2021/11/13 07:31:22;;;;;;;;;;;;;;;;;;4950583;28;19926;-60
2021/11/13 07:33:50;;;;;;;;;;;;;;;;;;4966016;28;20358;-60
2021/11/13 07:36:17;;;;;;;;;;;;;;;;;;4957501;28;19936;-61
2021/11/13 07:38:44;;;;;;;;;;;;;;;;;;4957341;28;19934;-61
2021/11/13 07:41:11;;;;;;;;;;;;;;;;;;4957612;28;20279;-60
2021/11/13 07:43:38;;;;;;;;;;;;;;;;;;4967921;28;20024;-59
2021/11/13 07:46:05;;;;;;;;;;;;;;;;;;4959499;28;19934;-61
2021/11/13 07:48:32;;;;;;;;;;;;;;;;;;4971849;28;20373;-60
2021/11/13 07:50:59;;;;;;;;;;;;;;;;;;4971866;28;19938;-59
2021/11/13 07:53:26;;;;;;;;;;;;;;;;;;4960248;28;19930;-58
2021/11/13 07:55:53;;;;;;;;;;;;;;;;;;4965405;28;19926;-60
2021/11/13 07:58:20;;;;;;;;;;;;;;;;;;4958757;28;20322;-59
2021/11/13 08:00:47;;;;;;;;;;;;;;;;;;4958441;28;19926;-60
2021/11/13 08:03:14;;;;;;;;;;;;;;;;;;4953992;28;19926;-61
2021/11/13 08:05:41;;;;;;;;;;;;;;;;;;4970098;28;19924;-60
2021/11/13 08:08:08;;;;;;;;;;;;;;;;;;4966860;28;19926;-56
2021/11/13 08:10:41;;;;;;;;;;;;;;;;;;4971458;28;19926;-61
2021/11/13 08:13:08;;;;;;;;;;;;;;;;;;4958240;28;19936;-59
2021/11/13 08:15:35;;;;;;;;;;;;;;;;;;4975920;28;20035;-60
2021/11/13 08:18:02;;;;;;;;;;;;;;;;;;4964470;28;20369;-60
2021/11/13 08:20:29;;;;;;;;;;;;;;;;;;4963768;28;19934;-60
2021/11/13 08:22:56;;;;;;;;;;;;;;;;;;4961490;28;20387;-60
2021/11/13 08:25:23;;;;;;;;;;;;;;;;;;4976782;28;20299;-58
2021/11/13 08:27:50;;;;;;;;;;;;;;;;;;4953241;28;20302;-59
2021/11/13 08:30:17;;;;;;;;;;;;;;;;;;4954760;28;19933;-60
2021/11/13 08:32:44;;;;;;;;;;;;;;;;;;4958045;28;19926;-60
2021/11/13 08:35:11;;;;;;;;;;;;;;;;;;4962816;28;19930;-60
2021/11/13 08:37:37;;;;;;;;;;;;;;;;;;4963811;28;19934;-60
2021/11/13 08:40:04;;;;;;;;;;;;;;;;;;4959904;28;19933;-59
2021/11/13 08:42:31;;;;;;;;;;;;;;;;;;4963524;28;19933;-60
2021/11/13 08:44:58;;;;;;;;;;;;;;;;;;4979911;28;19931;-60
2021/11/13 08:47:25;;;;;;;;;;;;;;;;;;4968944;28;19949;-60
2021/11/13 08:49:53;;;;;;;;;;;;;;;;;;4960319;28;20309;-59
2021/11/13 08:52:20;;;;;;;;;;;;;;;;;;4962570;28;19995;-60
2021/11/13 08:54:47;;;;;;;;;;;;;;;;;;4957447;28;19933;-60
2021/11/13 08:57:14;;;;;;;;;;;;;;;;;;4958315;28;20302;-60
2021/11/13 08:59:41;;;;;;;;;;;;;;;;;;4955202;28;20544;-60
2021/11/13 09:02:09;;;;;;;;;;;;;;;;;;4965289;28;19926;-60
2021/11/13 09:04:36;;;;;;;;;;;;;;;;;;4968296;28;19926;-60
2021/11/13 09:07:03;;;;;;;;;;;;;;;;;;4961519;28;19926;-60
2021/11/13 09:09:30;;;;;;;;;;;;;;;;;;4969511;28;19937;-60
2021/11/13 09:12:00;;;;;;;;;;;;;;;;;;4952237;28;19935;-61
2021/11/13 09:14:27;;;;;;;;;;;;;;;;;;4946725;28;19931;-60
2021/11/13 09:16:54;;;;;;;;;;;;;;;;;;4944258;28;19934;-60
2021/11/13 09:19:21;;;;;;;;;;;;;;;;;;4950603;28;19927;-60
2021/11/13 09:21:48;;;;;;;;;;;;;;;;;;4961251;28;19933;-61
2021/11/13 09:24:15;;;;;;;;;;;;;;;;;;4948033;28;19996;-61
2021/11/13 09:26:42;;;;;;;;;;;;;;;;;;4973808;28;19926;-60
2021/11/13 09:29:09;;;;;;;;;;;;;;;;;;4968970;28;19927;-60
2021/11/13 09:31:37;;;;;;;;;;;;;;;;;;4943125;28;20005;-61
2021/11/13 09:34:04;;;;;;;;;;;;;;;;;;4946099;28;19962;-61
2021/11/13 09:36:31;;;;;;;;;;;;;;;;;;4971100;28;20416;-62
2021/11/13 09:38:58;;;;;;;;;;;;;;;;;;4956410;28;19934;-59
2021/11/13 09:41:25;;;;;;;;;;;;;;;;;;4941892;28;20472;-60
2021/11/13 09:43:52;;;;;;;;;;;;;;;;;;4941572;28;19934;-58
2021/11/13 09:46:19;;;;;;;;;;;;;;;;;;4944512;28;19953;-60
2021/11/13 09:48:46;;;;;;;;;;;;;;;;;;4945360;28;19926;-62
2021/11/13 09:51:14;;;;;;;;;;;;;;;;;;4953804;28;19930;-60
2021/11/13 09:53:42;;;;;;;;;;;;;;;;;;4956546;28;19940;-62
2021/11/13 09:56:10;;;;;;;;;;;;;;;;;;4947978;28;19932;-62
2021/11/13 09:58:37;;;;;;;;;;;;;;;;;;4950750;28;19934;-63
2021/11/13 10:01:04;;;;;;;;;;;;;;;;;;4946476;28;19927;-62
2021/11/13 10:03:31;;;;;;;;;;;;;;;;;;4957320;28;19929;-59
2021/11/13 10:05:58;;;;;;;;;;;;;;;;;;4942068;28;19927;-57
2021/11/13 10:08:25;;;;;;;;;;;;;;;;;;4950292;28;19926;-62
2021/11/13 10:10:52;;;;;;;;;;;;;;;;;;4949892;28;19937;-63
2021/11/13 10:13:19;;;;;;;;;;;;;;;;;;4966056;28;19926;-62
2021/11/13 10:15:46;;;;;;;;;;;;;;;;;;4952467;28;19931;-58
2021/11/13 10:18:12;;;;;;;;;;;;;;;;;;4954186;28;20291;-60
2021/11/13 10:20:39;;;;;;;;;;;;;;;;;;4950052;28;20113;-62
2021/11/13 10:23:06;;;;;;;;;;;;;;;;;;4960596;28;19938;-60
2021/11/13 10:25:34;;;;;;;;;;;;;;;;;;4960209;28;19930;-61
2021/11/13 10:28:00;;;;;;;;;;;;;;;;;;4950923;28;19942;-61
2021/11/13 10:30:27;;;;;;;;;;;;;;;;;;4958119;28;19926;-61
2021/11/13 10:32:54;;;;;;;;;;;;;;;;;;4954165;28;19925;-62
2021/11/13 10:35:21;;;;;;;;;;;;;;;;;;4945878;28;19942;-60
2021/11/13 10:37:48;;;;;;;;;;;;;;;;;;4944235;28;20386;-61
2021/11/13 10:40:16;;;;;;;;;;;;;;;;;;4944574;29;19953;-61
2021/11/13 10:42:43;;;;;;;;;;;;;;;;;;4959276;28;19932;-61
2021/11/13 10:45:10;;;;;;;;;;;;;;;;;;4945125;28;20013;-59
2021/11/13 10:47:37;;;;;;;;;;;;;;;;;;4943097;28;19973;-59
2021/11/13 10:50:04;;;;;;;;;;;;;;;;;;4952501;28;19937;-60
2021/11/13 10:52:31;;;;;;;;;;;;;;;;;;4941754;28;19940;-60
2021/11/13 10:54:58;;;;;;;;;;;;;;;;;;4955373;28;19927;-58
2021/11/13 10:57:25;;;;;;;;;;;;;;;;;;4953975;28;19931;-62
2021/11/13 10:59:53;;;;;;;;;;;;;;;;;;4949204;28;19926;-62
2021/11/13 11:02:20;;;;;;;;;;;;;;;;;;4960855;28;19984;-62
2021/11/13 11:04:47;;;;;;;;;;;;;;;;;;4942387;28;19927;-62
2021/11/13 11:07:15;;;;;;;;;;;;;;;;;;4953704;28;19927;-62
2021/11/13 11:09:42;;;;;;;;;;;;;;;;;;4947026;28;19926;-62
2021/11/13 11:12:09;;;;;;;;;;;;;;;;;;4939477;28;19927;-62
2021/11/13 11:14:36;;;;;;;;;;;;;;;;;;4950491;28;19927;-62
2021/11/13 11:17:02;;;;;;;;;;;;;;;;;;4955833;28;19926;-62
2021/11/13 11:19:29;;;;;;;;;;;;;;;;;;4943252;28;19941;-62
2021/11/13 11:21:56;;;;;;;;;;;;;;;;;;4945421;28;19930;-63
2021/11/13 11:24:23;;;;;;;;;;;;;;;;;;4950656;28;19927;-62
2021/11/13 11:26:50;;;;;;;;;;;;;;;;;;4953948;28;19935;-63
2021/11/13 11:29:17;;;;;;;;;;;;;;;;;;4952018;28;20306;-62
2021/11/13 11:31:44;;;;;;;;;;;;;;;;;;4963267;28;19934;-62
2021/11/13 11:34:11;;;;;;;;;;;;;;;;;;4941541;28;19941;-62
2021/11/13 11:36:41;;;;;;;;;;;;;;;;;;4942371;28;19945;-62
2021/11/13 11:39:08;;;;;;;;;;;;;;;;;;4947413;28;19931;-62
2021/11/13 11:41:35;;;;;;;;;;;;;;;;;;4946387;28;20313;-62
2021/11/13 11:44:02;;;;;;;;;;;;;;;;;;4932065;28;19930;-62
2021/11/13 11:46:29;;;;;;;;;;;;;;;;;;4933553;28;19935;-62
2021/11/13 11:48:56;;;;;;;;;;;;;;;;;;4936620;28;19937;-63
2021/11/13 11:51:23;;;;;;;;;;;;;;;;;;4941297;28;20329;-62
2021/11/13 11:53:50;;;;;;;;;;;;;;;;;;4954436;28;20378;-62
2021/11/13 11:56:17;;;;;;;;;;;;;;;;;;4952809;28;19931;-62
2021/11/13 11:58:44;;;;;;;;;;;;;;;;;;4943014;28;19933;-62
2021/11/13 12:01:11;;;;;;;;;;;;;;;;;;4952573;28;19930;-63
2021/11/13 12:03:38;;;;;;;;;;;;;;;;;;4943948;28;19932;-62
2021/11/13 12:06:05;;;;;;;;;;;;;;;;;;4943577;28;19939;-62
2021/11/13 12:08:33;;;;;;;;;;;;;;;;;;4958763;28;19932;-62
2021/11/13 12:11:00;;;;;;;;;;;;;;;;;;4957927;28;19970;-60
2021/11/13 12:13:27;;;;;;;;;;;;;;;;;;4954234;28;20387;-61
2021/11/13 12:15:54;;;;;;;;;;;;;;;;;;4966164;28;19933;-60
2021/11/13 12:18:21;;;;;;;;;;;;;;;;;;4954698;28;19935;-61
2021/11/13 12:20:48;;;;;;;;;;;;;;;;;;4956674;28;20347;-61
2021/11/13 12:23:15;;;;;;;;;;;;;;;;;;4948122;28;20314;-60
2021/11/13 12:25:42;;;;;;;;;;;;;;;;;;4969949;28;19932;-60
2021/11/13 12:28:09;;;;;;;;;;;;;;;;;;4946522;28;19926;-61
2021/11/13 12:30:36;;;;;;;;;;;;;;;;;;4971673;28;19930;-59
2021/11/13 12:33:03;;;;;;;;;;;;;;;;;;4954732;28;19950;-59
2021/11/13 12:35:30;;;;;;;;;;;;;;;;;;4948862;28;19935;-61
2021/11/13 12:37:57;;;;;;;;;;;;;;;;;;4948667;28;19926;-62
2021/11/13 12:40:24;;;;;;;;;;;;;;;;;;4947532;28;19930;-59
2021/11/13 12:42:51;;;;;;;;;;;;;;;;;;4945585;28;19935;-60
2021/11/13 12:45:18;;;;;;;;;;;;;;;;;;4950303;28;19935;-62
2021/11/13 12:47:45;;;;;;;;;;;;;;;;;;4957484;28;19931;-61
2021/11/13 12:50:12;;;;;;;;;;;;;;;;;;4939258;28;20456;-62
2021/11/13 12:52:39;;;;;;;;;;;;;;;;;;4941734;28;20016;-62
2021/11/13 12:55:06;;;;;;;;;;;;;;;;;;4941906;28;19931;-60
2021/11/13 12:57:33;;;;;;;;;;;;;;;;;;4953326;28;20016;-61
2021/11/13 13:00:00;;;;;;;;;;;;;;;;;;4941054;28;19985;-61
2021/11/13 13:02:27;;;;;;;;;;;;;;;;;;4943207;28;19930;-61
2021/11/13 13:04:54;;;;;;;;;;;;;;;;;;4944232;28;19933;-61
2021/11/13 13:07:24;;;;;;;;;;;;;;;;;;4949224;28;20068;-63
2021/11/13 13:09:51;;;;;;;;;;;;;;;;;;4956386;28;19934;-63
2021/11/13 13:12:18;;;;;;;;;;;;;;;;;;4960747;28;20428;-62
2021/11/13 13:14:45;;;;;;;;;;;;;;;;;;4951993;28;19944;-63
2021/11/13 13:17:11;;;;;;;;;;;;;;;;;;4963802;28;19926;-64
2021/11/13 13:19:38;;;;;;;;;;;;;;;;;;4944148;28;19941;-60
2021/11/13 13:22:06;;;;;;;;;;;;;;;;;;4945040;28;19945;-61
2021/11/13 13:24:33;;;;;;;;;;;;;;;;;;4943346;28;19934;-61
2021/11/13 13:27:00;;;;;;;;;;;;;;;;;;4943421;28;20038;-61
2021/11/13 13:29:27;;;;;;;;;;;;;;;;;;4955667;28;20421;-60
2021/11/13 13:31:54;;;;;;;;;;;;;;;;;;4941092;28;19933;-59
2021/11/13 13:34:21;;;;;;;;;;;;;;;;;;4938157;28;19941;-60
2021/11/13 13:36:51;;;;;;;;;;;;;;;;;;4944129;28;19933;-61
2021/11/13 13:39:18;;;;;;;;;;;;;;;;;;4946742;28;20429;-61
2021/11/13 13:41:45;;;;;;;;;;;;;;;;;;4947342;28;20298;-61
2021/11/13 13:44:12;;;;;;;;;;;;;;;;;;4953761;28;19934;-61
2021/11/13 13:46:40;;;;;;;;;;;;;;;;;;4957147;28;19953;-62
2021/11/13 13:49:12;;;;;;;;;;;;;;;;;;4946399;28;20451;-62
2021/11/13 13:51:39;;;;;;;;;;;;;;;;;;4953542;28;19937;-61
2021/11/13 13:54:08;;;;;;;;;;;;;;;;;;4956841;28;20426;-62
2021/11/13 13:56:35;;;;;;;;;;;;;;;;;;4950949;28;20033;-61
2021/11/13 13:59:02;;;;;;;;;;;;;;;;;;4944716;28;20228;-61
2021/11/13 14:01:29;;;;;;;;;;;;;;;;;;4949686;28;19937;-61
2021/11/13 14:03:56;;;;;;;;;;;;;;;;;;4950724;28;19993;-61
2021/11/13 14:06:23;;;;;;;;;;;;;;;;;;4952206;28;19931;-62
2021/11/13 14:08:50;;;;;;;;;;;;;;;;;;4955611;28;19925;-61
2021/11/13 14:11:17;;;;;;;;;;;;;;;;;;4959631;28;19932;-61
2021/11/13 14:13:44;;;;;;;;;;;;;;;;;;4954623;28;19949;-60
2021/11/13 14:16:11;;;;;;;;;;;;;;;;;;4942590;28;19931;-62
2021/11/13 14:18:38;;;;;;;;;;;;;;;;;;4947727;28;19927;-61
2021/11/13 14:21:06;;;;;;;;;;;;;;;;;;4950199;28;20296;-59
2021/11/13 14:23:33;;;;;;;;;;;;;;;;;;4951906;28;20025;-62
2021/11/13 14:26:00;;;;;;;;;;;;;;;;;;4951465;28;19926;-61
2021/11/13 14:28:27;;;;;;;;;;;;;;;;;;4946115;28;20402;-61
2021/11/13 14:30:54;;;;;;;;;;;;;;;;;;4943083;28;19930;-61
2021/11/13 14:33:21;;;;;;;;;;;;;;;;;;4944707;28;19942;-62
2021/11/13 14:35:48;;;;;;;;;;;;;;;;;;4940435;28;19934;-61
2021/11/13 14:38:15;;;;;;;;;;;;;;;;;;4941008;28;19949;-61
2021/11/13 14:40:42;;;;;;;;;;;;;;;;;;4941168;28;19930;-61
2021/11/13 14:43:09;;;;;;;;;;;;;;;;;;4947249;28;19933;-61
2021/11/13 14:45:36;;;;;;;;;;;;;;;;;;4945574;28;19931;-61
2021/11/13 14:48:03;;;;;;;;;;;;;;;;;;4941133;28;19938;-63
2021/11/13 14:50:30;;;;;;;;;;;;;;;;;;4942763;28;19934;-62
2021/11/13 14:53:02;;;;;;;;;;;;;;;;;;4941844;28;19930;-63
2021/11/13 14:55:29;;;;;;;;;;;;;;;;;;4941470;28;20338;-63
2021/11/13 14:57:55;;;;;;;;;;;;;;;;;;4947617;28;19933;-62
2021/11/13 15:00:22;;;;;;;;;;;;;;;;;;4944489;28;19934;-62
2021/11/13 15:02:49;;;;;;;;;;;;;;;;;;4951606;28;19937;-63
2021/11/13 15:05:16;;;;;;;;;;;;;;;;;;4946283;28;19933;-63
2021/11/13 15:07:43;;;;;;;;;;;;;;;;;;4952664;28;19927;-62
2021/11/13 15:10:10;;;;;;;;;;;;;;;;;;4959799;28;20424;-62
2021/11/13 15:12:37;;;;;;;;;;;;;;;;;;4955744;28;20460;-61
2021/11/13 15:15:04;;;;;;;;;;;;;;;;;;4944217;28;20303;-61
2021/11/13 15:17:31;;;;;;;;;;;;;;;;;;4946421;28;19930;-62
2021/11/13 15:19:58;;;;;;;;;;;;;;;;;;4952482;28;19929;-62
2021/11/13 15:22:25;;;;;;;;;;;;;;;;;;4951139;28;20357;-62
2021/11/13 15:24:52;;;;;;;;;;;;;;;;;;4955704;28;19969;-62
2021/11/13 15:27:21;;;;;;;;;;;;;;;;;;4959350;28;19934;-61
2021/11/13 15:29:48;;;;;;;;;;;;;;;;;;4943755;28;19934;-62
2021/11/13 15:32:15;;;;;;;;;;;;;;;;;;4940850;28;19927;-62
2021/11/13 15:34:44;;;;;;;;;;;;;;;;;;4940592;28;19934;-63
2021/11/13 15:37:11;;;;;;;;;;;;;;;;;;4938154;28;20297;-63
2021/11/13 15:39:38;;;;;;;;;;;;;;;;;;4939576;28;20306;-62
2021/11/13 15:42:05;;;;;;;;;;;;;;;;;;4942686;28;20306;-62
2021/11/13 15:44:32;;;;;;;;;;;;;;;;;;4939301;28;20390;-62
2021/11/13 15:46:59;;;;;;;;;;;;;;;;;;4943608;28;20409;-62
2021/11/13 15:49:26;;;;;;;;;;;;;;;;;;4944420;28;20103;-62
2021/11/13 15:51:53;;;;;;;;;;;;;;;;;;4949247;28;20279;-61
2021/11/13 15:54:20;;;;;;;;;;;;;;;;;;4948643;28;20015;-63
2021/11/13 15:56:51;;;;;;;;;;;;;;;;;;4951145;28;20398;-63
2021/11/13 15:59:19;;;;;;;;;;;;;;;;;;4969888;28;19936;-60
2021/11/13 16:01:46;;;;;;;;;;;;;;;;;;4941760;28;19938;-63
2021/11/13 16:04:13;;;;;;;;;;;;;;;;;;4941363;28;19932;-64
2021/11/13 16:06:40;;;;;;;;;;;;;;;;;;4943972;28;19933;-64
2021/11/13 16:09:07;;;;;;;;;;;;;;;;;;4949049;28;19931;-62
2021/11/13 16:11:34;;;;;;;;;;;;;;;;;;4965958;28;19926;-61
2021/11/13 16:14:00;;;;;;;;;;;;;;;;;;4945063;28;19933;-63
2021/11/13 16:16:28;;;;;;;;;;;;;;;;;;4954468;28;20386;-65
2021/11/13 16:18:55;;;;;;;;;;;;;;;;;;4953601;28;19927;-64
2021/11/13 16:21:23;;;;;;;;;;;;;;;;;;4951327;28;19934;-64
2021/11/13 16:23:51;;;;;;;;;;;;;;;;;;4971739;28;19963;-62
2021/11/13 16:26:18;;;;;;;;;;;;;;;;;;4959677;28;20042;-65
2021/11/13 16:28:45;;;;;;;;;;;;;;;;;;4975646;28;19927;-62
2021/11/13 16:31:12;;;;;;;;;;;;;;;;;;4950680;28;19988;-64
2021/11/13 16:33:39;;;;;;;;;;;;;;;;;;4948664;28;19934;-65
2021/11/13 16:36:05;;;;;;;;;;;;;;;;;;4944450;28;19927;-62
2021/11/13 16:38:32;;;;;;;;;;;;;;;;;;4944934;28;19957;-62
2021/11/13 16:40:59;;;;;;;;;;;;;;;;;;4938773;28;19953;-62
2021/11/13 16:43:26;;;;;;;;;;;;;;;;;;4944453;28;19927;-63
2021/11/13 16:45:54;;;;;;;;;;;;;;;;;;4945933;28;19930;-62